Time;durP1;ratioP1;P1;durP2;ratioP2;P2;SDS_P1;SDS_P2;PMS_P1;PMS_P2;Temp;Humidity;BMP_temperature;BMP_pressure;BME280_temperature;BME280_humidity;BME280_pressure;Samples;Min_cycle;Max_cycle;Signal;HPM_P1;HPM_P2
2023/09/29 00:01:50;;;;;;;19.80;17.90;;;16.80;77.70;;;;;;6187440;28;20342;-84
2023/09/29 00:04:53;;;;;;;19.47;17.63;;;16.70;77.80;;;;;;6187306;28;20251;-82
2023/09/29 00:07:56;;;;;;;21.53;19.43;;;16.70;77.90;;;;;;6190875;28;20240;-83
2023/09/29 00:11:01;;;;;;;18.73;17.07;;;16.70;78.00;;;;;;6190589;28;20236;-83
2023/09/29 00:14:04;;;;;;;18.87;17.07;;;16.70;78.00;;;;;;6191269;28;20739;-84
2023/09/29 00:17:07;;;;;;;18.03;16.47;;;16.70;78.00;;;;;;6190322;28;20250;-85
2023/09/29 00:20:17;;;;;;;19.13;17.53;;;16.70;78.00;;;;;;6189705;28;20315;-84
2023/09/29 00:23:20;;;;;;;19.13;17.53;;;16.60;78.00;;;;;;6183322;28;20264;-85
2023/09/29 00:26:25;;;;;;;18.03;16.57;;;16.60;78.10;;;;;;6190922;28;20242;-83
2023/09/29 00:29:28;;;;;;;16.20;14.80;;;16.60;78.10;;;;;;6192891;28;20236;-84
2023/09/29 00:32:31;;;;;;;16.77;15.27;;;16.60;78.10;;;;;;6201028;28;20330;-83
2023/09/29 00:35:34;;;;;;;16.90;15.53;;;16.50;78.00;;;;;;6191283;28;20298;-82
2023/09/29 00:38:38;;;;;;;15.77;14.50;;;16.50;78.10;;;;;;6188014;28;20232;-82
2023/09/29 00:41:42;;;;;;;17.77;16.37;;;16.50;78.10;;;;;;6190190;28;20243;-84
2023/09/29 00:44:46;;;;;;;18.70;17.10;;;16.50;78.20;;;;;;6202057;28;20238;-81
2023/09/29 00:47:59;;;;;;;18.57;17.07;;;16.50;78.30;;;;;;6186335;28;20228;-83
2023/09/29 00:51:02;;;;;;;21.87;19.70;;;16.50;78.30;;;;;;6189329;28;20947;-83
2023/09/29 00:54:08;;;;;;;21.17;19.27;;;16.50;78.60;;;;;;6185754;28;20249;-84
2023/09/29 00:57:13;;;;;;;20.77;18.63;;;16.50;78.60;;;;;;6188787;28;20236;-83
2023/09/29 01:00:21;;;;;;;19.77;18.03;;;16.50;78.70;;;;;;6190136;28;20228;-83
2023/09/29 01:03:25;;;;;;;20.97;18.73;;;16.40;78.70;;;;;;6188829;28;20247;-81
2023/09/29 01:06:29;;;;;;;21.90;19.60;;;16.50;78.80;;;;;;6188092;28;20228;-84
2023/09/29 01:09:33;;;;;;;20.80;18.70;;;16.50;78.80;;;;;;6191156;28;20235;-83
2023/09/29 01:12:37;;;;;;;19.67;17.83;;;16.50;78.70;;;;;;6188279;28;20235;-84
2023/09/29 01:15:40;;;;;;;18.93;17.23;;;16.40;78.70;;;;;;6187595;28;20271;-83
2023/09/29 01:18:44;;;;;;;18.33;16.83;;;16.50;78.70;;;;;;6189022;28;20326;-84
2023/09/29 01:21:47;;;;;;;21.30;19.10;;;16.40;78.70;;;;;;6180976;28;20379;-82
2023/09/29 01:24:52;;;;;;;21.50;19.47;;;16.40;78.90;;;;;;6185557;28;20309;-81
2023/09/29 01:27:56;;;;;;;22.07;20.17;;;16.40;78.90;;;;;;6185377;28;20320;-84
2023/09/29 01:30:59;;;;;;;20.60;18.53;;;16.40;79.00;;;;;;6176433;28;20398;-83
2023/09/29 01:34:05;;;;;;;19.83;18.03;;;16.30;79.00;;;;;;6188703;28;20319;-85
2023/09/29 01:37:13;;;;;;;18.13;16.40;;;16.30;79.00;;;;;;6186650;28;20855;-84
2023/09/29 01:40:20;;;;;;;19.93;18.10;;;16.30;78.90;;;;;;6182946;28;20243;-83
2023/09/29 01:43:23;;;;;;;17.57;16.03;;;16.30;78.90;;;;;;6187848;28;20282;-83
2023/09/29 01:46:27;;;;;;;16.83;15.53;;;16.30;78.70;;;;;;6180611;28;20240;-82
2023/09/29 01:49:30;;;;;;;18.47;16.87;;;16.20;78.70;;;;;;6192212;28;20236;-83
2023/09/29 01:52:34;;;;;;;18.00;16.50;;;16.20;78.90;;;;;;6187043;28;20243;-84
2023/09/29 01:55:39;;;;;;;17.23;15.73;;;16.10;78.80;;;;;;6172292;28;20245;-85
2023/09/29 01:58:44;;;;;;;16.37;15.07;;;16.10;78.80;;;;;;6188421;28;20235;-83
2023/09/29 02:01:48;;;;;;;17.23;15.83;;;16.10;78.70;;;;;;6192409;28;20244;-83
2023/09/29 02:04:53;;;;;;;18.17;16.40;;;16.10;78.70;;;;;;6185789;28;20717;-84
2023/09/29 02:07:58;;;;;;;20.63;18.80;;;16.10;78.70;;;;;;6188133;28;20715;-82
2023/09/29 02:11:04;;;;;;;19.73;17.83;;;16.10;78.80;;;;;;6187008;28;20228;-84
2023/09/29 02:14:07;;;;;;;18.90;17.23;;;16.00;78.80;;;;;;6187459;28;20236;-83
2023/09/29 02:17:11;;;;;;;16.67;15.27;;;16.00;78.80;;;;;;6197697;28;20248;-83
2023/09/29 02:20:15;;;;;;;15.93;14.70;;;16.00;78.70;;;;;;6189956;28;20622;-84
2023/09/29 02:23:19;;;;;;;16.50;15.20;;;16.00;78.60;;;;;;6184272;28;20255;-81
2023/09/29 02:26:25;;;;;;;17.67;16.10;;;16.00;78.60;;;;;;6196243;28;20247;-83
2023/09/29 02:29:28;;;;;;;16.17;15.00;;;16.00;78.60;;;;;;6187449;28;20252;-82
2023/09/29 02:32:33;;;;;;;16.60;15.10;;;15.90;78.60;;;;;;6185396;28;20756;-83
2023/09/29 02:35:42;;;;;;;16.10;14.80;;;15.90;78.60;;;;;;6191364;28;20386;-83
2023/09/29 02:38:45;;;;;;;16.80;15.47;;;15.90;78.70;;;;;;6191466;28;20248;-82
2023/09/29 02:41:50;;;;;;;16.43;15.07;;;15.80;78.70;;;;;;6192197;28;20232;-84
2023/09/29 02:44:53;;;;;;;15.83;14.53;;;15.80;78.70;;;;;;6188821;28;20319;-81
2023/09/29 02:47:57;;;;;;;16.90;15.53;;;15.80;78.70;;;;;;6191412;28;20243;-81
2023/09/29 02:51:00;;;;;;;17.60;16.20;;;15.80;78.80;;;;;;6191477;28;20240;-84
2023/09/29 02:54:05;;;;;;;19.80;18.03;;;15.80;78.80;;;;;;6183298;28;20618;-83
2023/09/29 02:57:09;;;;;;;19.57;17.87;;;15.80;78.80;;;;;;6183737;28;20244;-83
2023/09/29 03:00:18;;;;;;;19.83;18.13;;;15.80;79.00;;;;;;6189873;28;20236;-83
2023/09/29 03:03:21;;;;;;;20.47;18.77;;;15.70;79.10;;;;;;6186260;28;20237;-81
2023/09/29 03:06:24;;;;;;;19.53;17.73;;;15.70;79.20;;;;;;6186179;28;20379;-82
2023/09/29 03:09:29;;;;;;;19.07;17.17;;;15.60;79.20;;;;;;6189520;28;20251;-78
2023/09/29 03:12:33;;;;;;;18.20;16.70;;;15.60;79.20;;;;;;6180882;28;20243;-81
2023/09/29 03:15:36;;;;;;;21.17;19.13;;;15.60;79.10;;;;;;6188381;28;20267;-83
2023/09/29 03:18:40;;;;;;;18.07;16.67;;;15.60;79.10;;;;;;6182647;28;20240;-84
2023/09/29 03:21:43;;;;;;;16.83;15.50;;;15.60;79.00;;;;;;6189677;28;20243;-82
2023/09/29 03:24:46;;;;;;;16.23;14.97;;;15.60;79.00;;;;;;6185122;28;20645;-83
2023/09/29 03:27:51;;;;;;;16.17;14.87;;;15.50;79.10;;;;;;6190310;28;20739;-83
2023/09/29 03:30:54;;;;;;;17.50;15.90;;;15.50;79.10;;;;;;6188255;28;20339;-82
2023/09/29 03:33:57;;;;;;;15.53;14.43;;;15.40;79.10;;;;;;6167435;28;20367;-82
2023/09/29 03:37:00;;;;;;;16.63;15.33;;;15.40;79.10;;;;;;6191300;28;20228;-82
2023/09/29 03:40:08;;;;;;;15.93;14.53;;;15.40;79.10;;;;;;6188509;28;20314;-84
2023/09/29 03:43:13;;;;;;;16.20;15.00;;;15.40;79.20;;;;;;6187415;28;20251;-83
2023/09/29 03:46:19;;;;;;;14.77;13.73;;;15.30;79.20;;;;;;6190055;28;20251;-82
2023/09/29 03:49:23;;;;;;;17.67;16.27;;;15.30;79.20;;;;;;6187206;28;20259;-82
2023/09/29 03:52:26;;;;;;;19.63;17.70;;;15.30;79.50;;;;;;6188608;28;20419;-81
2023/09/29 03:55:29;;;;;;;19.47;17.63;;;15.30;79.70;;;;;;6182953;28;20778;-81
2023/09/29 03:58:34;;;;;;;19.60;17.90;;;15.20;79.70;;;;;;6185973;28;20276;-79
2023/09/29 04:01:37;;;;;;;19.07;17.30;;;15.20;79.60;;;;;;6186386;28;20240;-82
2023/09/29 04:04:40;;;;;;;18.53;16.73;;;15.30;79.60;;;;;;6187326;28;20271;-81
2023/09/29 04:07:44;;;;;;;18.60;16.97;;;15.20;79.60;;;;;;6189727;28;20239;-82
2023/09/29 04:10:47;;;;;;;18.03;16.63;;;15.20;79.60;;;;;;6177652;28;20311;-83
2023/09/29 04:13:51;;;;;;;19.83;18.13;;;15.20;79.60;;;;;;6189876;28;20251;-84
2023/09/29 04:16:55;;;;;;;17.93;16.40;;;15.20;79.60;;;;;;6187134;28;20244;-83
2023/09/29 04:19:58;;;;;;;16.63;15.33;;;15.10;79.70;;;;;;6188334;28;20240;-82
2023/09/29 04:23:01;;;;;;;16.50;15.13;;;15.10;79.60;;;;;;6178961;28;20232;-83
2023/09/29 04:26:05;;;;;;;15.93;14.53;;;15.00;79.60;;;;;;6189379;28;20315;-84
2023/09/29 04:29:09;;;;;;;15.20;14.10;;;15.00;79.60;;;;;;6187860;28;20712;-83
2023/09/29 04:32:12;;;;;;;18.43;16.83;;;15.00;79.50;;;;;;6184759;28;20293;-82
2023/09/29 04:35:16;;;;;;;19.13;17.37;;;15.00;79.60;;;;;;6189550;28;20255;-83
2023/09/29 04:38:19;;;;;;;18.87;17.00;;;15.00;79.70;;;;;;6181325;28;20239;-83
2023/09/29 04:41:22;;;;;;;16.93;15.53;;;15.00;79.70;;;;;;6185338;28;20235;-83
2023/09/29 04:44:26;;;;;;;16.67;15.37;;;15.00;79.60;;;;;;6187919;28;20235;-82
2023/09/29 04:47:30;;;;;;;16.03;14.77;;;15.00;79.60;;;;;;6187214;28;20330;-84
2023/09/29 04:50:34;;;;;;;15.77;14.57;;;15.00;79.60;;;;;;6188298;28;20737;-78
2023/09/29 04:53:37;;;;;;;17.90;16.33;;;14.90;79.60;;;;;;6182527;28;20244;-80
2023/09/29 04:56:40;;;;;;;17.03;15.43;;;15.00;79.60;;;;;;6180027;28;20239;-80
2023/09/29 04:59:45;;;;;;;19.23;17.33;;;14.90;79.60;;;;;;6188099;28;20240;-80
2023/09/29 05:02:48;;;;;;;17.07;15.60;;;14.90;79.50;;;;;;6186047;28;20239;-80
2023/09/29 05:05:51;;;;;;;17.53;16.00;;;14.90;79.50;;;;;;6187270;28;20755;-80
2023/09/29 05:08:54;;;;;;;17.50;15.90;;;14.90;79.40;;;;;;6188047;28;20754;-78
2023/09/29 05:11:58;;;;;;;15.80;14.53;;;14.90;79.30;;;;;;6185133;28;20842;-81
2023/09/29 05:15:03;;;;;;;16.00;14.70;;;14.90;79.20;;;;;;6187547;28;20236;-81
2023/09/29 05:18:06;;;;;;;21.00;18.83;;;15.00;79.10;;;;;;6187159;28;20335;-82
2023/09/29 05:21:10;;;;;;;19.80;17.90;;;15.00;78.90;;;;;;6186843;28;20236;-77
2023/09/29 05:24:13;;;;;;;19.47;17.60;;;15.00;78.50;;;;;;6180801;28;20240;-78
2023/09/29 05:27:16;;;;;;;19.20;17.20;;;15.10;77.80;;;;;;6187339;28;20835;-79
2023/09/29 05:30:20;;;;;;;19.40;17.80;;;15.20;76.80;;;;;;6189071;28;20371;-79
2023/09/29 05:33:24;;;;;;;20.27;18.17;;;15.10;76.40;;;;;;6187008;28;20232;-78
2023/09/29 05:36:29;;;;;;;17.27;15.83;;;15.20;76.40;;;;;;6183444;28;20251;-78
2023/09/29 05:39:32;;;;;;;18.83;17.13;;;15.20;76.50;;;;;;6181912;28;20901;-82
2023/09/29 05:42:35;;;;;;;17.23;15.87;;;15.30;76.20;;;;;;6188877;28;20308;-80
2023/09/29 05:45:55;;;;;;;18.27;16.67;;;15.30;76.00;;;;;;6170515;28;20658;-79
2023/09/29 05:49:00;;;;;;;17.10;15.70;;;15.40;75.70;;;;;;6186988;28;20263;-80
2023/09/29 05:52:03;;;;;;;20.37;15.10;;;15.40;75.50;;;;;;6174188;28;20255;-77
2023/09/29 05:55:08;;;;;;;19.00;17.17;;;15.50;75.20;;;;;;6184824;28;20239;-78
2023/09/29 05:58:11;;;;;;;18.60;16.80;;;15.60;74.70;;;;;;6184560;28;20228;-78
2023/09/29 06:01:16;;;;;;;22.37;16.67;;;15.80;74.10;;;;;;6184334;28;20227;-78
2023/09/29 06:04:20;;;;;;;18.77;16.87;;;15.80;74.40;;;;;;6186093;28;20246;-80
2023/09/29 06:07:23;;;;;;;16.83;15.23;;;15.90;73.80;;;;;;6187119;28;20759;-77
2023/09/29 06:10:26;;;;;;;17.97;16.43;;;16.00;73.90;;;;;;6191881;28;20333;-79
2023/09/29 06:13:29;;;;;;;19.60;17.30;;;16.00;73.80;;;;;;6192636;28;20247;-78
2023/09/29 06:16:34;;;;;;;16.93;15.43;;;15.90;73.80;;;;;;6190316;28;20240;-80
2023/09/29 06:19:37;;;;;;;15.57;14.00;;;16.00;74.10;;;;;;6193210;28;20251;-78
2023/09/29 06:22:40;;;;;;;16.10;14.80;;;16.00;74.00;;;;;;6191944;28;20756;-79
2023/09/29 06:25:43;;;;;;;17.97;16.13;;;16.20;73.60;;;;;;6198159;28;20255;-78
2023/09/29 06:28:47;;;;;;;18.17;16.50;;;16.30;73.00;;;;;;6192971;28;20259;-79
2023/09/29 06:31:53;;;;;;;15.43;14.17;;;16.30;72.70;;;;;;6185167;28;20727;-79
2023/09/29 06:34:56;;;;;;;16.57;15.10;;;16.40;72.70;;;;;;6185434;28;20240;-79
2023/09/29 06:37:59;;;;;;;18.17;15.67;;;16.40;72.50;;;;;;6192567;28;20726;-79
2023/09/29 06:41:02;;;;;;;17.37;15.70;;;16.50;72.50;;;;;;6193191;28;20240;-80
2023/09/29 06:44:06;;;;;;;15.37;14.03;;;16.50;72.10;;;;;;6197049;28;20318;-78
2023/09/29 06:47:10;;;;;;;18.77;14.83;;;16.60;72.20;;;;;;6190546;28;21558;-78
2023/09/29 06:50:13;;;;;;;14.80;13.27;;;16.70;72.00;;;;;;6190939;28;20303;-79
2023/09/29 06:53:16;;;;;;;16.37;14.33;;;16.70;72.10;;;;;;6189734;28;20320;-78
2023/09/29 06:56:20;;;;;;;13.30;12.27;;;16.60;72.10;;;;;;6182739;28;20236;-80
2023/09/29 06:59:23;;;;;;;16.27;14.10;;;16.70;72.20;;;;;;6189814;28;20244;-79
2023/09/29 07:02:27;;;;;;;16.03;14.40;;;16.90;71.70;;;;;;6189394;28;20232;-81
2023/09/29 07:05:31;;;;;;;20.47;13.93;;;16.90;71.50;;;;;;6187027;28;20240;-79
2023/09/29 07:08:34;;;;;;;14.33;13.03;;;17.00;71.50;;;;;;6189288;28;20268;-78
2023/09/29 07:11:40;;;;;;;13.00;11.97;;;17.10;71.30;;;;;;6189884;28;20244;-78
2023/09/29 07:14:43;;;;;;;13.63;12.43;;;17.20;71.20;;;;;;6183346;28;20251;-78
2023/09/29 07:17:47;;;;;;;13.33;12.23;;;17.40;70.50;;;;;;6185816;28;20247;-79
2023/09/29 07:20:52;;;;;;;13.83;12.37;;;17.60;70.10;;;;;;6188949;28;20331;-78
2023/09/29 07:23:56;;;;;;;13.47;12.20;;;17.80;69.90;;;;;;6189909;28;20417;-80
2023/09/29 07:26:59;;;;;;;14.23;12.70;;;17.80;69.70;;;;;;6189177;28;20240;-78
2023/09/29 07:30:03;;;;;;;14.60;12.03;;;18.00;69.20;;;;;;6190174;28;20326;-79
2023/09/29 07:33:09;;;;;;;17.17;11.83;;;18.10;68.70;;;;;;6189247;28;20267;-78
2023/09/29 07:36:12;;;;;;;10.67;9.70;;;18.30;68.20;;;;;;6183595;28;20897;-78
2023/09/29 07:39:17;;;;;;;15.60;12.30;;;18.40;68.20;;;;;;6180826;28;20344;-77
2023/09/29 07:42:21;;;;;;;10.60;9.63;;;18.40;68.30;;;;;;6188671;28;20247;-77
2023/09/29 07:45:24;;;;;;;14.17;12.07;;;18.50;68.40;;;;;;6189049;28;20310;-77
2023/09/29 07:48:28;;;;;;;16.03;11.37;;;18.60;68.20;;;;;;6185284;28;20602;-78
2023/09/29 07:51:32;;;;;;;12.93;11.57;;;18.60;68.00;;;;;;6186962;28;20282;-78
2023/09/29 07:54:35;;;;;;;17.23;11.37;;;18.70;68.00;;;;;;6188003;28;20236;-79
2023/09/29 07:57:40;;;;;;;12.87;11.00;;;18.80;68.10;;;;;;6189634;28;20291;-78
2023/09/29 08:00:43;;;;;;;11.37;10.47;;;19.00;67.70;;;;;;6186580;28;20243;-80
2023/09/29 08:03:48;;;;;;;11.50;10.17;;;19.10;67.30;;;;;;6188934;28;20298;-80
2023/09/29 08:06:52;;;;;;;15.37;10.83;;;19.40;67.50;;;;;;6193336;28;20658;-81
2023/09/29 08:09:55;;;;;;;11.37;10.23;;;19.40;66.50;;;;;;6192285;28;20232;-80
2023/09/29 08:12:58;;;;;;;10.00;9.20;;;19.50;66.40;;;;;;6190580;28;20307;-80
2023/09/29 08:16:02;;;;;;;12.37;10.47;;;19.80;66.20;;;;;;6188652;28;20268;-80
2023/09/29 08:19:06;;;;;;;14.53;9.57;;;19.70;65.70;;;;;;6190694;28;20723;-80
2023/09/29 08:22:09;;;;;;;13.00;9.90;;;19.70;66.20;;;;;;6191804;28;20236;-80
2023/09/29 08:25:13;;;;;;;11.97;10.83;;;19.80;66.20;;;;;;6202300;28;20802;-81
2023/09/29 08:28:16;;;;;;;10.30;9.60;;;20.00;66.10;;;;;;6193528;28;20260;-81
2023/09/29 08:31:20;;;;;;;11.50;10.07;;;20.00;65.90;;;;;;6191561;28;20854;-80
2023/09/29 08:34:25;;;;;;;9.67;8.90;;;20.20;65.90;;;;;;6187731;28;20232;-80
2023/09/29 08:37:28;;;;;;;8.60;8.07;;;20.30;65.80;;;;;;6186849;28;20363;-83
2023/09/29 08:40:36;;;;;;;8.37;7.77;;;20.50;65.90;;;;;;6191002;28;20247;-83
2023/09/29 08:43:42;;;;;;;8.90;8.17;;;20.60;65.40;;;;;;6183029;28;20270;-80
2023/09/29 08:46:58;;;;;;;9.33;8.53;;;20.70;65.50;;;;;;6189941;28;20394;-81
2023/09/29 08:50:04;;;;;;;13.93;9.20;;;20.70;64.80;;;;;;6181710;28;20228;-79
2023/09/29 08:53:09;;;;;;;8.77;8.17;;;20.80;64.40;;;;;;6189613;28;20325;-79
2023/09/29 08:56:16;;;;;;;16.60;9.27;;;20.80;64.70;;;;;;6189089;28;20232;-79
2023/09/29 08:59:22;;;;;;;9.80;8.83;;;20.80;64.40;;;;;;6189570;28;20240;-82
2023/09/29 09:02:26;;;;;;;11.67;8.90;;;20.70;65.10;;;;;;6191460;28;20628;-80
2023/09/29 09:05:30;;;;;;;8.63;8.10;;;20.80;65.10;;;;;;6190198;28;20275;-82
2023/09/29 09:08:34;;;;;;;10.80;9.30;;;20.90;65.20;;;;;;6183093;28;20340;-81
2023/09/29 09:11:43;;;;;;;10.00;9.13;;;21.10;64.20;;;;;;6187332;28;20232;-78
2023/09/29 09:14:46;;;;;;;9.30;8.43;;;21.20;64.30;;;;;;6187104;28;20244;-79
2023/09/29 09:17:50;;;;;;;9.50;8.63;;;21.30;64.00;;;;;;6189404;28;20439;-81
2023/09/29 09:20:55;;;;;;;11.00;7.93;;;21.40;64.40;;;;;;6176721;28;20240;-81
2023/09/29 09:23:58;;;;;;;10.70;8.83;;;21.30;64.10;;;;;;6186628;28;20287;-80
2023/09/29 09:27:02;;;;;;;8.93;8.23;;;21.40;63.80;;;;;;6184621;28;20232;-82
2023/09/29 09:30:20;;;;;;;8.73;7.83;;;21.40;64.00;;;;;;6183855;28;20247;-80
2023/09/29 09:33:25;;;;;;;9.73;8.33;;;21.40;63.90;;;;;;6183340;28;20232;-79
2023/09/29 09:36:31;;;;;;;8.03;7.30;;;21.30;63.80;;;;;;6189867;28;20251;-80
2023/09/29 09:39:35;;;;;;;7.47;6.97;;;21.30;63.60;;;;;;6185535;28;20297;-82
2023/09/29 09:42:39;;;;;;;8.13;7.10;;;21.40;63.80;;;;;;6188137;28;20320;-80
2023/09/29 09:45:45;;;;;;;7.47;7.07;;;21.40;64.00;;;;;;6183658;28;20236;-81
2023/09/29 09:49:08;;;;;;;8.40;7.57;;;21.50;64.40;;;;;;6187708;28;20240;-82
2023/09/29 09:52:18;;;;;;;7.83;7.00;;;21.50;64.10;;;;;;6184577;28;20594;-80
2023/09/29 09:55:28;;;;;;;8.17;7.53;;;21.70;64.50;;;;;;6186721;28;20302;-79
2023/09/29 09:58:32;;;;;;;9.30;8.27;;;21.70;63.40;;;;;;6187644;28;20618;-82
2023/09/29 10:01:36;;;;;;;7.90;7.33;;;21.80;63.10;;;;;;6186224;28;20242;-79
2023/09/29 10:04:40;;;;;;;7.67;6.97;;;21.90;63.60;;;;;;6186336;28;20242;-80
2023/09/29 10:07:48;;;;;;;13.07;10.37;;;22.00;63.50;;;;;;6182372;28;20728;-78
2023/09/29 10:10:51;;;;;;;9.27;8.23;;;21.90;63.20;;;;;;6188841;28;20314;-80
2023/09/29 10:14:04;;;;;;;9.47;8.73;;;22.00;63.00;;;;;;6188959;28;20263;-80
2023/09/29 10:17:07;;;;;;;11.47;8.27;;;22.10;62.80;;;;;;6188194;28;20627;-80
2023/09/29 10:20:20;;;;;;;9.87;7.50;;;22.20;62.40;;;;;;6188049;28;20236;-80
2023/09/29 10:23:26;;;;;;;8.83;7.30;;;22.30;62.70;;;;;;6186046;28;20311;-79
2023/09/29 10:26:29;;;;;;;8.90;7.30;;;22.40;63.00;;;;;;6187903;28;20247;-81
2023/09/29 10:29:34;;;;;;;7.90;7.20;;;22.40;62.10;;;;;;6189942;28;20483;-81
2023/09/29 10:32:38;;;;;;;7.90;7.17;;;22.50;61.70;;;;;;6187046;28;20240;-80
2023/09/29 10:35:46;;;;;;;6.80;6.30;;;22.50;62.50;;;;;;6186746;28;20239;-81
2023/09/29 10:38:51;;;;;;;12.00;7.80;;;22.50;62.70;;;;;;6188736;28;20232;-79
2023/09/29 10:41:59;;;;;;;7.83;7.23;;;22.60;62.70;;;;;;6183455;28;20771;-79
2023/09/29 10:45:02;;;;;;;6.63;6.30;;;22.70;63.00;;;;;;6188459;28;20290;-80
2023/09/29 10:48:07;;;;;;;7.80;7.17;;;22.90;62.50;;;;;;6188960;28;20240;-79
2023/09/29 10:51:20;;;;;;;7.67;7.17;;;23.00;61.00;;;;;;6184337;28;20229;-78
2023/09/29 10:54:25;;;;;;;7.90;7.23;;;23.10;61.20;;;;;;6185150;28;20246;-78
2023/09/29 10:57:28;;;;;;;7.40;7.00;;;23.10;60.70;;;;;;6185174;28;20236;-81
2023/09/29 11:00:31;;;;;;;9.90;8.27;;;23.30;61.70;;;;;;6185400;28;20708;-78
2023/09/29 11:03:35;;;;;;;8.87;8.17;;;23.40;60.70;;;;;;6189272;28;20259;-78
2023/09/29 11:06:45;;;;;;;8.40;7.67;;;23.30;60.80;;;;;;6191014;28;20682;-78
2023/09/29 11:09:50;;;;;;;8.27;7.43;;;23.40;61.20;;;;;;6189917;28;20224;-79
2023/09/29 11:12:53;;;;;;;9.00;8.10;;;23.50;60.40;;;;;;6187620;28;20318;-79
2023/09/29 11:15:58;;;;;;;7.57;6.87;;;23.40;59.90;;;;;;6196392;28;20979;-80
2023/09/29 11:19:10;;;;;;;9.27;8.27;;;23.20;60.70;;;;;;6189801;28;20232;-80
2023/09/29 11:22:18;;;;;;;10.70;7.93;;;23.20;60.90;;;;;;6187881;28;20330;-80
2023/09/29 11:25:22;;;;;;;10.97;8.67;;;22.60;62.00;;;;;;6186570;28;20276;-78
2023/09/29 11:28:26;;;;;;;8.33;7.60;;;22.40;62.70;;;;;;6189042;28;20303;-77
2023/09/29 11:31:29;;;;;;;8.10;7.53;;;22.50;62.90;;;;;;6189433;28;20322;-79
2023/09/29 11:34:33;;;;;;;8.47;7.77;;;22.60;62.80;;;;;;6185811;28;20826;-79
2023/09/29 11:37:36;;;;;;;7.33;6.83;;;22.70;62.90;;;;;;6183714;28;20306;-78
2023/09/29 11:40:41;;;;;;;8.77;7.43;;;22.60;62.80;;;;;;6187915;28;20244;-77
2023/09/29 11:43:46;;;;;;;10.40;7.27;;;22.70;62.50;;;;;;6188020;28;20244;-80
2023/09/29 11:46:49;;;;;;;7.40;6.90;;;22.70;62.20;;;;;;6184035;28;20250;-78
2023/09/29 11:49:52;;;;;;;7.80;7.30;;;22.50;62.70;;;;;;6192695;28;20840;-78
2023/09/29 11:52:55;;;;;;;6.93;6.53;;;22.60;62.80;;;;;;6189301;28;20712;-79
2023/09/29 11:56:00;;;;;;;7.37;6.87;;;22.80;62.80;;;;;;6187705;28;20319;-79
2023/09/29 11:59:03;;;;;;;6.80;6.40;;;22.90;62.80;;;;;;6188070;28;20264;-78
2023/09/29 12:02:07;;;;;;;10.47;7.90;;;23.00;62.70;;;;;;6187383;28;20235;-78
2023/09/29 12:05:11;;;;;;;9.00;8.40;;;23.20;61.60;;;;;;6190696;28;22916;-76
2023/09/29 12:08:14;;;;;;;10.37;7.53;;;22.90;61.60;;;;;;6188041;28;20349;-80
2023/09/29 12:11:20;;;;;;;9.67;7.20;;;22.90;62.50;;;;;;6184110;28;20243;-77
2023/09/29 12:14:25;;;;;;;11.67;10.23;;;22.80;62.00;;;;;;6187001;28;20240;-78
2023/09/29 12:17:28;;;;;;;9.20;8.30;;;22.90;62.40;;;;;;6184419;28;20875;-79
2023/09/29 12:20:31;;;;;;;12.87;7.53;;;23.10;61.00;;;;;;6173959;28;20298;-79
2023/09/29 12:23:34;;;;;;;10.70;7.27;;;22.90;61.40;;;;;;6180944;28;20306;-78
2023/09/29 12:26:39;;;;;;;8.47;7.43;;;23.00;61.00;;;;;;6181328;28;20237;-79
2023/09/29 12:29:44;;;;;;;10.87;7.63;;;22.90;61.40;;;;;;6185172;28;20255;-79
2023/09/29 12:32:47;;;;;;;8.07;7.37;;;22.90;62.00;;;;;;6189571;28;20327;-81
2023/09/29 12:35:50;;;;;;;7.57;6.97;;;22.80;62.40;;;;;;6184919;28;20235;-79
2023/09/29 12:38:54;;;;;;;8.30;7.47;;;23.00;61.90;;;;;;6186803;28;20855;-78
2023/09/29 12:41:58;;;;;;;10.30;8.00;;;23.00;62.00;;;;;;6192515;28;20258;-79
2023/09/29 12:45:01;;;;;;;9.30;8.27;;;22.90;61.90;;;;;;6190186;28;20236;-79
2023/09/29 12:48:05;;;;;;;9.07;8.20;;;22.90;62.10;;;;;;6190613;28;20243;-79
2023/09/29 12:51:14;;;;;;;12.43;8.63;;;22.80;62.60;;;;;;6190232;28;20232;-79
2023/09/29 12:54:30;;;;;;;9.00;7.97;;;22.50;62.50;;;;;;6182087;28;20286;-78
2023/09/29 12:57:34;;;;;;;8.33;7.53;;;22.30;63.60;;;;;;6191576;28;20262;-79
2023/09/29 13:00:38;;;;;;;10.70;8.73;;;22.30;63.70;;;;;;6190236;28;20329;-78
2023/09/29 13:03:41;;;;;;;10.57;8.23;;;22.20;63.40;;;;;;6189748;28;20240;-79
2023/09/29 13:06:44;;;;;;;10.97;8.83;;;22.10;64.40;;;;;;6184661;28;20250;-78
2023/09/29 13:09:48;;;;;;;10.03;8.93;;;22.20;65.00;;;;;;6190216;28;20743;-78
2023/09/29 13:12:54;;;;;;;8.97;7.67;;;22.10;65.60;;;;;;6183356;28;20230;-78
2023/09/29 13:15:59;;;;;;;11.00;7.97;;;22.20;65.70;;;;;;6189329;28;20236;-77
2023/09/29 13:19:04;;;;;;;8.70;7.90;;;22.10;65.60;;;;;;6180210;28;20263;-77
2023/09/29 13:22:07;;;;;;;9.00;7.77;;;22.00;65.60;;;;;;6179908;28;20323;-78
2023/09/29 13:25:10;;;;;;;10.70;9.37;;;21.90;66.20;;;;;;6189162;28;20767;-80
2023/09/29 13:28:15;;;;;;;8.87;8.10;;;21.80;66.10;;;;;;6187832;28;20322;-80
2023/09/29 13:31:18;;;;;;;9.03;8.43;;;21.80;66.20;;;;;;6189369;28;20843;-77
2023/09/29 13:34:22;;;;;;;8.33;7.83;;;21.90;66.30;;;;;;6188841;28;20291;-78
2023/09/29 13:37:25;;;;;;;10.33;8.27;;;21.90;66.90;;;;;;6184539;28;20232;-78
2023/09/29 13:40:28;;;;;;;9.57;8.77;;;21.90;66.60;;;;;;6185278;28;20244;-77
2023/09/29 13:43:32;;;;;;;11.63;9.27;;;22.00;66.40;;;;;;6187528;28;20243;-77
2023/09/29 13:46:36;;;;;;;10.90;9.90;;;22.10;66.30;;;;;;6185696;28;20295;-77
2023/09/29 13:49:59;;;;;;;10.77;9.73;;;22.20;66.30;;;;;;6180715;28;20232;-79
2023/09/29 13:53:03;;;;;;;9.00;8.20;;;22.30;66.30;;;;;;6184843;28;20721;-79
2023/09/29 13:56:06;;;;;;;8.57;8.03;;;22.40;65.70;;;;;;6188258;28;20236;-79
2023/09/29 13:59:11;;;;;;;8.73;7.83;;;22.50;65.70;;;;;;6177071;28;20268;-78
2023/09/29 14:02:14;;;;;;;9.73;8.90;;;22.50;65.70;;;;;;6190468;28;20259;-79
2023/09/29 14:05:18;;;;;;;9.53;8.73;;;22.50;65.40;;;;;;6189112;28;20244;-80
2023/09/29 14:08:21;;;;;;;8.47;7.87;;;22.50;65.40;;;;;;6189977;28;20318;-78
2023/09/29 14:11:24;;;;;;;9.10;8.30;;;22.50;65.50;;;;;;6186662;28;20240;-78
2023/09/29 14:14:29;;;;;;;9.67;9.07;;;22.50;65.50;;;;;;6188070;28;20236;-77
2023/09/29 14:17:32;;;;;;;9.17;8.47;;;22.50;65.60;;;;;;6187873;28;20717;-80
2023/09/29 14:20:36;;;;;;;10.80;9.80;;;22.50;65.70;;;;;;6188656;28;20236;-77
2023/09/29 14:23:40;;;;;;;11.27;8.97;;;22.60;65.10;;;;;;6184545;28;20243;-77
2023/09/29 14:26:43;;;;;;;9.27;8.30;;;22.60;64.70;;;;;;6187618;28;20236;-78
2023/09/29 14:29:47;;;;;;;10.23;8.60;;;22.60;64.30;;;;;;6190197;28;20240;-77
2023/09/29 14:32:50;;;;;;;10.57;9.27;;;22.60;64.50;;;;;;6191952;28;20639;-78
2023/09/29 14:35:53;;;;;;;9.67;8.83;;;22.70;64.80;;;;;;6191776;28;20317;-78
2023/09/29 14:38:56;;;;;;;10.30;9.17;;;22.60;64.80;;;;;;6188508;28;20247;-77
2023/09/29 14:41:59;;;;;;;9.73;9.03;;;22.60;65.00;;;;;;6182348;28;20235;-77
2023/09/29 14:45:05;;;;;;;8.80;8.17;;;22.50;65.10;;;;;;6182770;28;20271;-77
2023/09/29 14:48:09;;;;;;;8.63;7.93;;;22.50;65.10;;;;;;6188982;28;20262;-76
2023/09/29 14:51:12;;;;;;;9.03;8.23;;;22.50;65.20;;;;;;6191120;28;20247;-77
2023/09/29 14:54:15;;;;;;;8.67;7.97;;;22.50;65.30;;;;;;6190433;28;20259;-78
2023/09/29 14:57:20;;;;;;;8.20;7.70;;;22.40;65.50;;;;;;6188182;28;20267;-79
2023/09/29 15:00:25;;;;;;;9.43;8.63;;;22.30;65.60;;;;;;6186672;28;20673;-77
2023/09/29 15:03:31;;;;;;;10.77;8.67;;;22.30;65.40;;;;;;6188022;28;20248;-80
2023/09/29 15:06:34;;;;;;;10.57;8.93;;;22.20;65.50;;;;;;6190969;28;20240;-77
2023/09/29 15:09:38;;;;;;;11.67;8.40;;;22.20;65.80;;;;;;6189555;28;20590;-77
2023/09/29 15:12:41;;;;;;;9.20;8.50;;;22.10;66.00;;;;;;6193176;28;20892;-78
2023/09/29 15:15:47;;;;;;;8.17;7.73;;;22.00;65.90;;;;;;6186257;28;20228;-77
2023/09/29 15:18:53;;;;;;;7.73;7.20;;;22.00;66.00;;;;;;6187580;28;20847;-78
2023/09/29 15:21:56;;;;;;;8.33;7.37;;;22.00;66.10;;;;;;6185883;28;20254;-77
2023/09/29 15:25:00;;;;;;;7.70;7.17;;;22.00;66.20;;;;;;6196103;28;20282;-77
2023/09/29 15:28:04;;;;;;;7.67;7.07;;;22.00;66.30;;;;;;6188119;28;20736;-80
2023/09/29 15:31:08;;;;;;;9.13;8.07;;;22.00;66.30;;;;;;6188356;28;20317;-77
2023/09/29 15:34:12;;;;;;;11.33;8.27;;;22.10;66.30;;;;;;6189592;28;20246;-82
2023/09/29 15:37:15;;;;;;;8.47;7.83;;;22.00;66.50;;;;;;6190534;28;20633;-78
2023/09/29 15:40:18;;;;;;;8.17;7.47;;;22.00;66.70;;;;;;6183950;28;20319;-78
2023/09/29 15:43:22;;;;;;;6.97;6.57;;;22.00;66.70;;;;;;6188741;28;20254;-81
2023/09/29 15:46:26;;;;;;;11.00;7.67;;;21.90;66.80;;;;;;6186824;28;20255;-80